createdAt,value
2022-08-05T00:00:25.947Z,101141.38
2022-08-05T00:02:57.216Z,101134.72
2022-08-05T00:05:27.187Z,101117.31
2022-08-05T00:08:32.948Z,101146.53
2022-08-05T00:11:04.336Z,101138.69
2022-08-05T00:13:39.064Z,101096.28
2022-08-05T00:16:12.157Z,101097.81
2022-08-05T00:18:44.486Z,101071.00
2022-08-05T00:21:14.768Z,101093.69
2022-08-05T00:23:45.682Z,101099.72
2022-08-05T00:26:17.154Z,101095.69
2022-08-05T00:28:46.031Z,101088.03
2022-08-05T00:31:15.590Z,101089.56
2022-08-05T00:34:54.424Z,101082.09
2022-08-05T00:37:11.542Z,101087.66
2022-08-05T00:39:21.541Z,101086.22
2022-08-05T00:41:55.563Z,101080.88
2022-08-05T00:44:30.608Z,101081.44
2022-08-05T00:47:02.066Z,101066.59
2022-08-05T00:49:44.757Z,101096.56
2022-08-05T00:52:23.917Z,101095.31
2022-08-05T00:54:57.378Z,101110.59
2022-08-05T00:57:31.595Z,101126.34
2022-08-05T01:00:11.167Z,101134.94
2022-08-05T01:02:41.325Z,101124.72
2022-08-05T01:05:12.904Z,101117.53
2022-08-05T01:08:41.179Z,101130.16
2022-08-05T01:10:36.758Z,101140.78
2022-08-05T01:13:13.252Z,101124.78
2022-08-05T01:15:55.064Z,101127.66
2022-08-05T01:18:32.872Z,101145.66
2022-08-05T01:21:22.807Z,101132.75
2022-08-05T01:24:14.301Z,101120.59
2022-08-05T01:26:55.587Z,101088.13
2022-08-05T01:29:32.249Z,101128.25
2022-08-05T01:32:12.524Z,101116.19
2022-08-05T01:34:46.849Z,101126.69
2022-08-05T01:37:25.073Z,101120.41
2022-08-05T01:39:58.947Z,101094.28
2022-08-05T01:42:28.957Z,101101.06
2022-08-05T01:45:02.329Z,101116.97
2022-08-05T01:47:39.235Z,101106.25
2022-08-05T01:50:15.710Z,101073.91
2022-08-05T01:52:49.968Z,101071.50
2022-08-05T01:55:21.515Z,101088.06
2022-08-05T01:58:11.255Z,101091.47
2022-08-05T02:00:45.563Z,101089.56
2022-08-05T02:03:28.917Z,101071.41
2022-08-05T02:06:03.376Z,101087.38
2022-08-05T02:08:55.004Z,101079.34
2022-08-05T02:11:33.146Z,101075.41
2022-08-05T02:14:06.433Z,101058.97
2022-08-05T02:16:45.271Z,101061.53
2022-08-05T02:19:18.810Z,101060.41
2022-08-05T02:21:53.392Z,101074.75
2022-08-05T02:24:24.637Z,101049.00
2022-08-05T02:26:56.858Z,101071.00
2022-08-05T02:30:00.086Z,101071.00
2022-08-05T02:32:24.265Z,101062.22
2022-08-05T02:35:02.174Z,101079.91
2022-08-05T02:37:47.686Z,101078.28
2022-08-05T02:40:24.316Z,101063.72
2022-08-05T02:42:55.359Z,101073.56
2022-08-05T02:45:25.480Z,101081.69
2022-08-05T02:48:06.748Z,101069.47
2022-08-05T02:50:43.874Z,101090.19
2022-08-05T02:53:18.839Z,101069.84
2022-08-05T02:55:59.568Z,101075.88
2022-08-05T02:58:30.266Z,101100.47
2022-08-05T03:01:04.744Z,101062.19
2022-08-05T03:04:03.430Z,101069.78
2022-08-05T03:06:54.423Z,101104.63
2022-08-05T03:09:15.987Z,101080.66
2022-08-05T03:11:55.787Z,101097.38
2022-08-05T03:14:26.778Z,101090.16
2022-08-05T03:16:55.159Z,101085.16
2022-08-05T03:19:34.594Z,101082.22
2022-08-05T03:22:04.858Z,101099.75
2022-08-05T03:24:47.077Z,101082.56
2022-08-05T03:27:15.862Z,101091.53
2022-08-05T03:29:45.519Z,101078.75
2022-08-05T03:32:32.599Z,101075.22
2022-08-05T03:35:04.626Z,101082.38
2022-08-05T03:37:44.754Z,101094.31
2022-08-05T03:40:31.257Z,101095.41
2022-08-05T03:43:01.333Z,101061.34
2022-08-05T03:45:57.315Z,101059.91
2022-08-05T03:48:30.090Z,101075.09
2022-08-05T03:52:38.943Z,101057.00
2022-08-05T03:55:06.939Z,101067.47
2022-08-05T03:57:00.026Z,101078.00
2022-08-05T03:59:47.000Z,101084.13
2022-08-05T04:02:37.677Z,101082.19
2022-08-05T04:05:09.717Z,101056.56
2022-08-05T04:07:57.324Z,101063.16
2022-08-05T04:10:30.891Z,101060.38
2022-08-05T04:13:04.325Z,101064.31
2022-08-05T04:15:33.371Z,101058.91
2022-08-05T04:18:08.002Z,101060.22
2022-08-05T04:20:38.344Z,101039.31
2022-08-05T04:23:12.645Z,101076.75
2022-08-05T04:25:57.520Z,101046.38
2022-08-05T04:28:30.547Z,101082.56
2022-08-05T04:31:01.647Z,101059.25
2022-08-05T04:34:19.046Z,101057.91
2022-08-05T04:36:49.443Z,101087.22
2022-08-05T04:39:13.998Z,101058.75
2022-08-05T04:41:42.127Z,101069.28
2022-08-05T04:44:12.601Z,101073.09
2022-08-05T04:46:40.974Z,101085.63
2022-08-05T04:49:15.365Z,101078.94
2022-08-05T04:51:44.363Z,101076.09
2022-08-05T04:54:14.922Z,101082.66
2022-08-05T04:56:43.678Z,101071.59
2022-08-05T04:59:21.789Z,101087.81
2022-08-05T05:02:06.993Z,101079.63
2022-08-05T05:04:44.031Z,101095.81
2022-08-05T05:07:16.085Z,101114.44
2022-08-05T05:09:46.804Z,101083.44
2022-08-05T05:12:15.046Z,101123.09
2022-08-05T05:14:50.882Z,101092.44
2022-08-05T05:17:24.371Z,101128.31
2022-08-05T05:19:56.654Z,101107.38
2022-08-05T05:22:26.497Z,101117.88
2022-08-05T05:24:59.803Z,101107.53
2022-08-05T05:27:45.144Z,101108.47
2022-08-05T05:30:29.803Z,101113.38
2022-08-05T05:33:09.443Z,101110.03
2022-08-05T05:35:45.422Z,101123.03
2022-08-05T05:38:14.435Z,101106.94
2022-08-05T05:40:50.089Z,101119.78
2022-08-05T05:43:21.850Z,101119.28
2022-08-05T05:45:56.420Z,101146.34
2022-08-05T05:48:27.386Z,101108.06
2022-08-05T05:50:55.978Z,101125.72
2022-08-05T05:53:24.820Z,101124.53
2022-08-05T05:56:01.390Z,101126.44
2022-08-05T05:58:32.214Z,101120.28
2022-08-05T06:01:13.299Z,101098.97
2022-08-05T06:04:01.038Z,101118.31
2022-08-05T06:06:31.275Z,101105.25
2022-08-05T06:09:03.900Z,101117.75
2022-08-05T06:11:34.041Z,101096.19
2022-08-05T06:14:02.770Z,101128.88
2022-08-05T06:16:37.281Z,101122.28
2022-08-05T06:19:08.109Z,101136.16
2022-08-05T06:21:38.790Z,101125.16
2022-08-05T06:24:11.944Z,101144.19
2022-08-05T06:26:51.714Z,101183.25
2022-08-05T06:29:42.821Z,101201.00
2022-08-05T06:32:25.172Z,101187.09
2022-08-05T06:34:58.772Z,101195.06
2022-08-05T06:37:57.304Z,101210.28
2022-08-05T06:40:18.503Z,101248.25
2022-08-05T06:42:52.507Z,101233.91
2022-08-05T06:45:44.548Z,101264.19
2022-08-05T06:48:36.901Z,101327.84
2022-08-05T06:51:00.151Z,101324.81
2022-08-05T06:53:29.778Z,101351.31
2022-08-05T06:56:06.562Z,101326.78
2022-08-05T06:58:55.915Z,101336.91
2022-08-05T07:01:34.126Z,101369.13
2022-08-05T07:04:03.402Z,101398.59
2022-08-05T07:06:31.753Z,101439.31
2022-08-05T07:09:05.005Z,101420.81
2022-08-05T07:12:00.385Z,101419.69
2022-08-05T07:14:49.473Z,101440.84
2022-08-05T07:18:00.014Z,101455.91
2022-08-05T07:20:38.748Z,101478.22
2022-08-05T07:23:08.601Z,101461.41
2022-08-05T07:25:56.213Z,101464.06
2022-08-05T07:28:25.314Z,101481.03
2022-08-05T07:31:00.263Z,101488.22
2022-08-05T07:33:37.019Z,101370.59
2022-08-05T07:36:20.839Z,101218.44
2022-08-05T07:38:59.525Z,100646.34
2022-08-05T07:42:08.866Z,100989.91
2022-08-05T09:42:24.141Z,101192.88
2022-08-05T09:45:17.493Z,101189.09
2022-08-05T09:47:54.973Z,101197.88
2022-08-05T09:50:38.934Z,101194.50
2022-08-05T09:53:22.721Z,101180.09
2022-08-05T09:56:03.964Z,101199.06
2022-08-05T09:58:34.742Z,101210.84
2022-08-05T10:01:14.696Z,101196.78
2022-08-05T10:03:59.370Z,101205.94
2022-08-05T10:06:28.628Z,101188.19
2022-08-05T10:08:57.707Z,101186.09
2022-08-05T10:11:31.401Z,101170.97
2022-08-05T10:14:21.907Z,101181.00
2022-08-05T10:16:52.875Z,101185.09
2022-08-05T10:19:23.595Z,101148.56
2022-08-05T10:22:00.474Z,101147.44
2022-08-05T10:24:29.312Z,101129.75
2022-08-05T10:27:01.560Z,101162.84
2022-08-05T10:30:41.969Z,101162.16
2022-08-05T10:32:54.510Z,101159.91
2022-08-05T10:35:14.810Z,101148.88
2022-08-05T10:37:44.999Z,101167.25
2022-08-05T10:40:28.095Z,101135.91
2022-08-05T10:43:01.248Z,101120.13
2022-08-05T10:45:40.527Z,101136.69
2022-08-05T10:48:57.450Z,101127.78
2022-08-05T10:51:29.222Z,101131.47
2022-08-05T10:54:29.870Z,101112.91
2022-08-05T10:57:34.309Z,101097.91
2022-08-05T11:04:00.955Z,101105.66
2022-08-05T11:11:06.963Z,101139.03
2022-08-05T11:13:58.351Z,101127.41
2022-08-05T11:16:47.929Z,101121.13
2022-08-05T11:20:10.845Z,101140.97
2022-08-05T11:22:54.089Z,101171.84
2022-08-05T11:26:06.004Z,101178.38
2022-08-05T11:28:55.821Z,101173.09
2022-08-05T11:31:57.005Z,101193.81
2022-08-05T11:38:29.105Z,101203.22
2022-08-05T11:41:58.204Z,101218.50
2022-08-05T11:44:41.258Z,101224.50
2022-08-05T11:47:48.795Z,101235.97
2022-08-05T11:50:21.909Z,101251.13
2022-08-05T11:52:57.222Z,101242.69
2022-08-05T11:55:31.669Z,101246.19
2022-08-05T11:58:09.615Z,101266.91
2022-08-05T12:00:44.397Z,101270.50
2022-08-05T12:03:23.789Z,101276.28
2022-08-05T12:06:01.275Z,101264.66
2022-08-05T12:08:32.843Z,101275.44
2022-08-05T12:11:20.612Z,101286.13
2022-08-05T12:14:07.608Z,101264.97
2022-08-05T12:16:45.351Z,101270.69
2022-08-05T12:20:26.136Z,101271.97
2022-08-05T12:22:30.953Z,101293.00
2022-08-05T12:25:06.601Z,101294.59
2022-08-05T12:27:52.933Z,101308.00
2022-08-05T12:30:28.993Z,101315.44
2022-08-05T12:33:07.235Z,101318.63
2022-08-05T12:36:03.930Z,101299.72
2022-08-05T12:38:47.751Z,101295.75
2022-08-05T12:41:22.115Z,101289.72
2022-08-05T12:44:06.378Z,101298.91
2022-08-05T12:47:02.600Z,101309.28
2022-08-05T12:50:04.166Z,101363.94
2022-08-05T12:52:44.415Z,101327.22
2022-08-05T12:55:28.344Z,101317.22
2022-08-05T12:58:50.934Z,101326.97
2022-08-05T13:02:02.757Z,101316.31
2022-08-05T13:03:58.006Z,101311.16
2022-08-05T13:06:29.689Z,101305.78
2022-08-05T13:09:01.566Z,101330.78
2022-08-05T13:12:01.648Z,101322.00
2022-08-05T13:14:36.325Z,101345.19
2022-08-05T13:17:11.573Z,101328.09
2022-08-05T13:19:52.674Z,101346.25
2022-08-05T13:22:28.437Z,101345.53
2022-08-05T13:25:05.610Z,101356.34
2022-08-05T13:27:42.271Z,101348.69
2022-08-05T13:30:38.891Z,101362.91
2022-08-05T13:34:21.507Z,101377.25
2022-08-05T13:36:29.012Z,101387.31
2022-08-05T13:38:58.206Z,101378.13
2022-08-05T13:41:37.568Z,101369.50
2022-08-05T13:44:07.952Z,101390.75
2022-08-05T13:47:01.835Z,101383.22
2022-08-05T13:49:29.741Z,101389.38
2022-08-05T13:52:13.591Z,101384.16
2022-08-05T13:54:43.587Z,101384.34
2022-08-05T13:57:24.720Z,101396.00
2022-08-05T13:59:57.534Z,101405.06
2022-08-05T14:02:29.867Z,101406.88
2022-08-05T14:05:29.399Z,101405.03
2022-08-05T14:08:21.129Z,101420.53
2022-08-05T14:10:59.626Z,101397.47
2022-08-05T14:13:32.194Z,101422.53
2022-08-05T14:16:08.238Z,101397.72
2022-08-05T14:18:41.322Z,101409.47
2022-08-05T14:22:06.984Z,101408.59
2022-08-05T14:24:01.375Z,101434.94
2022-08-05T14:26:35.748Z,101426.59
2022-08-05T14:29:16.310Z,101422.25
2022-08-05T14:32:02.379Z,101451.16
2022-08-05T14:34:35.744Z,101451.88
2022-08-05T14:37:04.711Z,101454.69
2022-08-05T14:39:49.793Z,101435.56
2022-08-05T14:42:28.834Z,101447.91
2022-08-05T14:45:20.751Z,101419.56
2022-08-05T14:48:03.644Z,101427.72
2022-08-05T14:50:35.995Z,101442.22
2022-08-05T14:53:14.858Z,101410.72
2022-08-05T14:55:52.377Z,101429.41
2022-08-05T14:58:22.818Z,101430.06
2022-08-05T15:00:59.612Z,101450.47
2022-08-05T15:03:39.169Z,101425.59
2022-08-05T15:06:15.083Z,101454.38
2022-08-05T15:08:59.810Z,101445.22
2022-08-05T15:11:53.218Z,101460.00
2022-08-05T15:14:35.753Z,101441.72
2022-08-05T15:17:45.018Z,101443.28
2022-08-05T15:20:04.179Z,101446.97
2022-08-05T15:22:33.777Z,101443.16
2022-08-05T15:25:13.580Z,101446.06
2022-08-05T15:27:52.033Z,101435.78
2022-08-05T15:30:22.785Z,101430.09
2022-08-05T15:32:55.071Z,101456.56
2022-08-05T15:35:26.510Z,101425.91
2022-08-05T15:38:33.059Z,101448.44
2022-08-05T15:41:20.193Z,101442.47
2022-08-05T15:43:51.461Z,101448.03
2022-08-05T15:46:26.877Z,101443.13
2022-08-05T15:49:26.318Z,101464.59
2022-08-05T15:52:29.509Z,101446.00
2022-08-05T15:55:19.682Z,101455.88
2022-08-05T15:57:54.216Z,101437.50
2022-08-05T16:00:42.924Z,101449.81
2022-08-05T16:03:18.646Z,101450.06
2022-08-05T16:06:32.327Z,101461.34
2022-08-05T16:09:41.991Z,101462.16
2022-08-05T16:12:16.893Z,101446.81
2022-08-05T16:14:48.979Z,101475.25
2022-08-05T16:17:18.762Z,101470.88
2022-08-05T16:20:05.297Z,101448.63
2022-08-05T16:22:37.085Z,101488.94
2022-08-05T16:25:33.845Z,101468.03
2022-08-05T16:28:13.849Z,101461.38
2022-08-05T16:30:45.938Z,101480.28
2022-08-05T16:33:18.480Z,101490.41
2022-08-05T16:35:52.741Z,101462.22
2022-08-05T16:38:28.044Z,101476.25
2022-08-05T16:43:56.484Z,101478.66
2022-08-05T16:46:30.283Z,101457.31
2022-08-05T16:49:00.369Z,101467.81
2022-08-05T16:51:42.603Z,101489.91
2022-08-05T16:54:28.658Z,101474.03
2022-08-05T16:57:00.201Z,101491.50
2022-08-05T16:59:33.931Z,101489.53
2022-08-05T17:05:12.999Z,101476.97
2022-08-05T17:07:54.427Z,101483.97
2022-08-05T17:10:26.491Z,101481.69
2022-08-05T17:16:02.751Z,101461.16
2022-08-05T17:18:50.470Z,101504.44
2022-08-05T17:21:23.637Z,101467.44
2022-08-05T17:27:07.527Z,101495.72
2022-08-05T17:29:59.753Z,101519.66
2022-08-05T17:32:35.259Z,101498.84
2022-08-05T17:38:00.467Z,101528.13
2022-08-05T17:40:57.341Z,101517.09
2022-08-05T17:43:50.493Z,101528.00
2022-08-05T17:46:16.146Z,101544.56
2022-08-05T17:48:50.605Z,101526.34
2022-08-05T17:51:21.748Z,101560.94
2022-08-05T17:54:03.406Z,101556.72
2022-08-05T17:56:48.982Z,101544.06
2022-08-05T17:59:22.588Z,101565.47
2022-08-05T18:02:03.240Z,101566.31
2022-08-05T18:22:07.160Z,101583.16
2022-08-05T18:25:00.644Z,101581.53
2022-08-05T18:27:51.940Z,101607.44
2022-08-05T18:31:33.722Z,101622.78
2022-08-05T18:34:41.115Z,101626.16
2022-08-05T18:41:55.981Z,101641.56
2022-08-05T18:44:49.360Z,101651.69
2022-08-05T18:57:54.011Z,101650.00
2022-08-05T19:15:59.138Z,101590.91
2022-08-05T19:31:44.813Z,101680.97
2022-08-05T19:34:19.931Z,101720.13
2022-08-05T19:37:09.732Z,101722.69
2022-08-05T19:54:49.677Z,101814.28
2022-08-05T20:04:45.857Z,101965.13
2022-08-05T20:10:11.773Z,102097.00
2022-08-05T20:18:38.474Z,102094.78
2022-08-05T20:21:08.450Z,102094.75
2022-08-05T20:23:49.431Z,102097.72
2022-08-05T20:26:31.710Z,102093.53
2022-08-05T20:29:06.491Z,102100.66
2022-08-05T20:31:59.767Z,102133.59
2022-08-05T20:35:01.982Z,102091.00
2022-08-05T20:38:05.610Z,102136.41
2022-08-05T20:41:11.145Z,102081.53
2022-08-05T20:44:00.401Z,102093.66
2022-08-05T20:46:33.613Z,102108.25
2022-08-05T20:49:02.489Z,102097.59
2022-08-05T20:51:54.236Z,102062.06
2022-08-05T20:54:42.983Z,102075.19
2022-08-05T20:57:43.347Z,102088.16
2022-08-05T21:00:49.837Z,102061.84
2022-08-05T21:03:24.242Z,102020.28
2022-08-05T21:05:55.923Z,102017.59
2022-08-05T21:08:42.295Z,102042.66
2022-08-05T21:12:09.534Z,102027.09
2022-08-05T21:14:14.857Z,102025.16
2022-08-05T21:16:53.950Z,102013.78
2022-08-05T21:19:23.516Z,101982.66
2022-08-05T21:21:54.073Z,102021.47
2022-08-05T21:24:25.389Z,101982.84
2022-08-05T21:27:00.369Z,101969.50
2022-08-05T21:29:40.786Z,102004.31
2022-08-05T21:32:11.950Z,101988.72
2022-08-05T21:34:55.980Z,101985.75
2022-08-05T21:37:40.993Z,101983.19
2022-08-05T21:40:14.231Z,101978.91
2022-08-05T21:42:47.640Z,101970.09
2022-08-05T21:45:56.511Z,101991.09
2022-08-05T21:48:24.763Z,101980.66
2022-08-05T21:50:54.489Z,101957.38
2022-08-05T21:53:27.729Z,101976.47
2022-08-05T21:56:06.619Z,101952.03
2022-08-05T21:58:57.510Z,101978.25
2022-08-05T22:01:27.101Z,101983.81
2022-08-05T22:03:57.762Z,101983.75
2022-08-05T22:06:39.660Z,101960.88
2022-08-05T22:09:13.150Z,101952.25
2022-08-05T22:11:46.769Z,101968.38
2022-08-05T22:14:35.393Z,101953.81
2022-08-05T22:17:15.977Z,101979.84
2022-08-05T22:20:02.801Z,101973.72
2022-08-05T22:22:55.827Z,101978.09
2022-08-05T22:26:09.720Z,101946.09
2022-08-05T22:28:33.017Z,101990.50
2022-08-05T22:31:05.569Z,101987.41
2022-08-05T22:33:58.606Z,101958.41
2022-08-05T22:36:33.099Z,101994.22
2022-08-05T22:39:09.073Z,102004.94
2022-08-05T22:42:10.517Z,101983.97
2022-08-05T22:44:32.886Z,101977.22
2022-08-05T22:47:05.760Z,101993.81
2022-08-05T22:50:19.393Z,101966.94
2022-08-05T22:52:32.453Z,101957.88
2022-08-05T22:55:19.168Z,101987.63
2022-08-05T22:57:49.841Z,101973.06
2022-08-05T23:00:20.861Z,101998.22
2022-08-05T23:02:50.753Z,101995.38
2022-08-05T23:05:24.802Z,101989.94
2022-08-05T23:07:59.590Z,101978.53
2022-08-05T23:10:34.137Z,101989.13
2022-08-05T23:13:03.651Z,102003.25
2022-08-05T23:15:35.273Z,102024.59
2022-08-05T23:21:58.813Z,101999.06
2022-08-05T23:24:28.608Z,102016.09
2022-08-05T23:26:58.190Z,102001.59
2022-08-05T23:29:34.469Z,101985.09
2022-08-05T23:32:02.876Z,101994.69
2022-08-05T23:34:32.470Z,102023.66
2022-08-05T23:37:05.375Z,102021.09
2022-08-05T23:39:54.517Z,102023.31
2022-08-05T23:42:29.260Z,102011.28
2022-08-05T23:44:58.821Z,102014.69
2022-08-05T23:47:33.588Z,102005.06
2022-08-05T23:50:03.593Z,102012.38
2022-08-05T23:52:49.506Z,102020.25
2022-08-05T23:55:22.602Z,102022.34
2022-08-05T23:58:00.289Z,102008.31
